ENFL/FRO METAR and TAF weather

Enter ICAO airport designator
Station Type Date Time Source
ENFL METAR 2021/10/20 05:50 UTC NOAA

ENFL 200550Z 20014KT 4000 RA FEW004 BKN006 11/11 Q0980


Station Type Date Time Source
ENFL Decoded METAR 2021/10/20 05:50 UTC NOAA

Floro, Norway (ENFL) 61-35N 005-02E 9M
Oct 20, 2021 - 01:50 AM EDT / 2021.10.20 0550 UTC
Wind: from the SSW (200 degrees) at 16 MPH (14 KT):0
Visibility: 2 mile(s):0
Sky conditions: mostly cloudy
Weather: rain
Temperature: 51 F (11 C)
Dew Point: 51 F (11 C)
Relative Humidity: 100%
Pressure (altimeter): 28.94 in. Hg (0980 hPa)
ob: ENFL 200550Z 20014KT 4000 RA FEW004 BKN006 11/11 Q0980
cycle: 6

Station Type Date Time Source
ENFL TAF 2010/02/05 07:50 UTC NOAA

METAR ENFL 050750Z 16019KT 140V200 9999 FEW015 SCT030 BKN055 03/M03 Q1011

Example: see airport list